createdAt,value
2022-08-05T00:02:22.174Z,100688.84
2022-08-05T00:04:55.880Z,100688.38
2022-08-05T00:07:59.216Z,100690.06
2022-08-05T00:10:11.382Z,100691.03
2022-08-05T00:12:55.974Z,100687.56
2022-08-05T00:15:55.879Z,100692.00
2022-08-05T00:18:21.563Z,100686.47
2022-08-05T00:20:49.409Z,100681.66
2022-08-05T00:23:16.781Z,100681.31
2022-08-05T00:25:45.584Z,100678.78
2022-08-05T00:28:13.880Z,100674.31
2022-08-05T00:30:44.021Z,100673.47
2022-08-05T00:33:15.625Z,100683.97
2022-08-05T00:36:16.400Z,100675.78
2022-08-05T00:38:45.573Z,100675.19
2022-08-05T00:41:13.409Z,100668.56
2022-08-05T00:43:47.174Z,100670.38
2022-08-05T00:46:17.152Z,100672.66
2022-08-05T00:49:04.798Z,100665.91
2022-08-05T00:51:51.751Z,100673.00
2022-08-05T00:54:19.379Z,100670.50
2022-08-05T00:56:51.592Z,100670.84
2022-08-05T00:59:18.764Z,100670.50
2022-08-05T01:01:48.695Z,100665.03
2022-08-05T01:04:16.180Z,100669.66
2022-08-05T01:06:49.054Z,100667.81
2022-08-05T01:09:20.283Z,100663.50
2022-08-05T01:11:50.845Z,100656.50
2022-08-05T01:14:27.948Z,100663.47
2022-08-05T01:17:07.026Z,100663.25
2022-08-05T01:20:02.340Z,100645.44
2022-08-05T01:22:57.428Z,100652.41
2022-08-05T01:25:53.242Z,100648.69
2022-08-05T01:28:39.436Z,100648.31
2022-08-05T01:31:14.062Z,100652.28
2022-08-05T01:33:53.644Z,100641.69
2022-08-05T01:36:28.338Z,100642.91
2022-08-05T01:38:56.915Z,100647.00
2022-08-05T01:41:32.219Z,100647.47
2022-08-05T01:44:01.684Z,100637.25
2022-08-05T01:46:42.691Z,100641.22
2022-08-05T01:49:22.965Z,100634.72
2022-08-05T01:51:54.011Z,100636.69
2022-08-05T01:54:25.687Z,100634.16
2022-08-05T01:58:09.487Z,100631.03
2022-08-05T01:59:49.130Z,100626.81
2022-08-05T02:02:17.756Z,100627.28
2022-08-05T02:04:49.436Z,100629.81
2022-08-05T02:07:21.622Z,100621.63
2022-08-05T02:09:50.126Z,100622.47
2022-08-05T02:12:25.797Z,100626.31
2022-08-05T02:15:03.625Z,100619.94
2022-08-05T02:18:32.993Z,100628.13
2022-08-05T02:20:30.593Z,100618.75
2022-08-05T02:23:10.934Z,100621.38
2022-08-05T02:25:49.803Z,100621.38
2022-08-05T02:28:28.941Z,100613.31
2022-08-05T02:31:07.928Z,100615.25
2022-08-05T02:33:48.857Z,100619.34
2022-08-05T02:36:27.504Z,100611.88
2022-08-05T02:38:56.884Z,100614.41
2022-08-05T02:41:28.946Z,100608.50
2022-08-05T02:44:11.899Z,100604.19
2022-08-05T02:46:53.340Z,100609.34
2022-08-05T02:49:35.701Z,100614.03
2022-08-05T02:52:08.001Z,100608.75
2022-08-05T02:54:37.913Z,100610.97
2022-08-05T02:58:09.161Z,100604.59
2022-08-05T03:00:01.459Z,100605.44
2022-08-05T03:02:31.684Z,100591.63
2022-08-05T03:04:59.777Z,100596.06
2022-08-05T03:07:59.467Z,100590.78
2022-08-05T03:10:22.088Z,100596.06
2022-08-05T03:12:54.224Z,100596.06
2022-08-05T03:15:23.804Z,100598.59
2022-08-05T03:17:55.993Z,100596.69
2022-08-05T03:20:24.900Z,100601.16
2022-08-05T03:22:57.372Z,100592.09
2022-08-05T03:25:33.145Z,100592.69
2022-08-05T03:28:14.369Z,100599.63
2022-08-05T03:30:47.528Z,100596.97
2022-08-05T03:33:14.677Z,100594.69
2022-08-05T03:35:42.249Z,100592.25
2022-08-05T03:38:14.494Z,100591.41
2022-08-05T03:40:45.304Z,100590.81
2022-08-05T03:44:08.499Z,100583.97
2022-08-05T03:46:04.951Z,100582.75
2022-08-05T03:48:35.632Z,100584.81
2022-08-05T03:52:38.978Z,100592.50
2022-08-05T03:55:51.303Z,100582.50
2022-08-05T03:57:16.255Z,100586.72
2022-08-05T03:59:54.786Z,100587.22
2022-08-05T04:02:39.023Z,100589.16
2022-08-05T04:05:12.990Z,100589.28
2022-08-05T04:07:58.080Z,100593.13
2022-08-05T04:10:37.166Z,100589.16
2022-08-05T04:13:07.747Z,100589.41
2022-08-05T04:15:36.490Z,100584.13
2022-08-05T04:18:09.372Z,100585.84
2022-08-05T04:20:37.488Z,100583.91
2022-08-05T04:23:04.713Z,100578.50
2022-08-05T04:25:49.423Z,100579.34
2022-08-05T04:28:30.552Z,100573.81
2022-08-05T04:30:58.926Z,100575.63
2022-08-05T04:33:54.328Z,100580.47
2022-08-05T04:36:49.483Z,100577.59
2022-08-05T04:39:04.428Z,100573.41
2022-08-05T04:41:37.282Z,100570.03
2022-08-05T04:44:08.900Z,100580.00
2022-08-05T04:46:37.957Z,100575.69
2022-08-05T04:49:12.406Z,100576.66
2022-08-05T04:51:44.264Z,100575.94
2022-08-05T04:54:12.195Z,100571.59
2022-08-05T04:56:39.474Z,100570.34
2022-08-05T04:59:23.996Z,100570.72
2022-08-05T05:02:06.811Z,100572.41
2022-08-05T05:04:47.532Z,100571.53
2022-08-05T05:07:17.069Z,100577.19
2022-08-05T05:09:45.620Z,100569.00
2022-08-05T05:12:12.540Z,100569.38
2022-08-05T05:14:42.714Z,100572.63
2022-08-05T05:17:23.473Z,100576.09
2022-08-05T05:19:56.448Z,100582.03
2022-08-05T05:22:26.502Z,100574.69
2022-08-05T05:24:59.114Z,100577.56
2022-08-05T05:27:44.166Z,100585.47
2022-08-05T05:30:15.350Z,100577.00
2022-08-05T05:32:56.505Z,100576.59
2022-08-05T05:35:23.434Z,100577.63
2022-08-05T05:37:59.511Z,100577.13
2022-08-05T05:40:32.114Z,100572.13
2022-08-05T05:43:00.104Z,100571.13
2022-08-05T05:45:29.736Z,100567.84
2022-08-05T05:48:07.166Z,100567.41
2022-08-05T05:50:43.934Z,100564.47
2022-08-05T05:53:22.571Z,100561.63
2022-08-05T05:55:52.264Z,100569.31
2022-08-05T05:58:31.963Z,100564.53
2022-08-05T06:01:13.011Z,100572.53
2022-08-05T06:04:00.416Z,100571.28
2022-08-05T06:06:33.022Z,100574.72
2022-08-05T06:09:03.933Z,100587.00
2022-08-05T06:11:31.893Z,100592.13
2022-08-05T06:14:00.341Z,100585.53
2022-08-05T06:16:36.687Z,100592.63
2022-08-05T06:19:07.069Z,100595.84
2022-08-05T06:21:37.556Z,100590.28
2022-08-05T06:24:07.747Z,100596.59
2022-08-05T06:26:39.065Z,100601.81
2022-08-05T06:29:23.610Z,100598.16
2022-08-05T06:31:53.336Z,100597.34
2022-08-05T06:34:20.407Z,100602.78
2022-08-05T06:36:57.173Z,100599.63
2022-08-05T06:39:27.702Z,100584.22
2022-08-05T06:42:02.008Z,100586.34
2022-08-05T06:44:31.797Z,100582.38
2022-08-05T06:46:58.761Z,100583.53
2022-08-05T06:50:00.424Z,100575.66
2022-08-05T06:52:36.951Z,100575.13
2022-08-05T06:55:03.166Z,100574.00
2022-08-05T06:57:57.521Z,100573.31
2022-08-05T07:00:22.240Z,100565.03
2022-08-05T07:02:53.818Z,100577.03
2022-08-05T07:05:24.612Z,100573.66
2022-08-05T07:08:04.357Z,100561.66
2022-08-05T07:10:32.417Z,100560.44
2022-08-05T07:13:56.718Z,100561.56
2022-08-05T07:17:56.237Z,100565.16
2022-08-05T07:19:11.017Z,100568.97
2022-08-05T07:21:59.867Z,100566.84
2022-08-05T07:24:28.759Z,100562.66
2022-08-05T07:26:57.248Z,100565.56
2022-08-05T07:30:22.196Z,100560.06
2022-08-05T07:32:12.400Z,100566.44
2022-08-05T07:34:42.390Z,100560.50
2022-08-05T07:37:11.576Z,100559.59
2022-08-05T07:40:04.073Z,100564.56
2022-08-05T07:42:31.830Z,100565.16
2022-08-05T07:45:01.303Z,100561.50
2022-08-05T07:47:41.937Z,100549.66
2022-08-05T07:50:10.261Z,100544.38
2022-08-05T07:52:42.186Z,100563.56
2022-08-05T07:55:44.619Z,100564.69
2022-08-05T07:58:03.200Z,100564.31
2022-08-05T08:00:31.424Z,100569.47
2022-08-05T08:03:15.004Z,100566.66
2022-08-05T08:05:47.642Z,100563.75
2022-08-05T08:08:20.056Z,100563.53
2022-08-05T08:10:48.715Z,100561.50
2022-08-05T08:13:22.137Z,100560.22
2022-08-05T08:16:35.296Z,100558.75
2022-08-05T08:18:43.551Z,100559.53
2022-08-05T08:21:17.878Z,100551.03
2022-08-05T08:24:01.800Z,100549.19
2022-08-05T08:26:32.625Z,100547.34
2022-08-05T08:29:09.755Z,100556.16
2022-08-05T08:31:48.252Z,100551.94
2022-08-05T08:34:16.968Z,100550.81
2022-08-05T08:36:50.198Z,100552.63
2022-08-05T08:39:20.549Z,100556.00
2022-08-05T08:41:52.144Z,100544.91
2022-08-05T08:45:18.982Z,100547.88
2022-08-05T08:48:06.847Z,100550.28
2022-08-05T08:51:03.523Z,100541.44
2022-08-05T08:53:12.007Z,100546.38
2022-08-05T08:56:04.574Z,100537.44
2022-08-05T08:58:37.445Z,100538.22
2022-08-05T09:01:17.129Z,100527.25
2022-08-05T09:03:58.374Z,100529.47
2022-08-05T09:06:30.880Z,100531.34
2022-08-05T09:09:00.519Z,100529.41
2022-08-05T09:11:51.135Z,100530.03
2022-08-05T09:14:56.509Z,100528.63
2022-08-05T09:17:16.181Z,100530.38
2022-08-05T09:20:02.612Z,100530.38
2022-08-05T09:23:05.475Z,100531.03
2022-08-05T09:26:00.031Z,100529.03
2022-08-05T09:28:24.518Z,100513.97
2022-08-05T09:31:22.638Z,100520.38
2022-08-05T09:34:13.022Z,100504.06
2022-08-05T09:36:54.084Z,100511.50
2022-08-05T09:39:41.228Z,100509.97
2022-08-05T09:42:17.763Z,100505.47
2022-08-05T09:44:55.979Z,100502.91
2022-08-05T09:47:29.481Z,100503.16
2022-08-05T09:50:13.794Z,100505.00
2022-08-05T09:52:45.825Z,100504.03
2022-08-05T09:55:58.679Z,100506.31
2022-08-05T09:58:09.428Z,100496.47
2022-08-05T10:00:38.487Z,100494.72
2022-08-05T10:03:10.738Z,100494.97
2022-08-05T10:05:39.060Z,100488.25
2022-08-05T10:08:10.802Z,100491.94
2022-08-05T10:10:54.884Z,100492.09
2022-08-05T10:13:47.475Z,100490.75
2022-08-05T10:16:34.097Z,100488.09
2022-08-05T10:19:04.317Z,100482.81
2022-08-05T10:21:40.464Z,100480.13
2022-08-05T10:24:15.146Z,100478.66
2022-08-05T10:26:51.810Z,100471.13
2022-08-05T10:30:05.744Z,100473.13
2022-08-05T10:32:52.512Z,100474.13
2022-08-05T10:35:01.000Z,100471.13
2022-08-05T10:37:41.323Z,100465.84
2022-08-05T10:40:58.137Z,100466.34
2022-08-05T10:43:35.864Z,100468.50
2022-08-05T10:46:09.677Z,100465.19
2022-08-05T10:48:56.719Z,100470.00
2022-08-05T10:51:29.128Z,100468.66
2022-08-05T10:54:01.669Z,100465.19
2022-08-05T10:56:45.499Z,100459.03
2022-08-05T11:00:02.483Z,100454.06
2022-08-05T11:02:38.422Z,100455.22
2022-08-05T11:05:05.999Z,100451.06
2022-08-05T11:08:02.593Z,100446.59
2022-08-05T11:10:29.320Z,100454.38
2022-08-05T11:12:57.856Z,100442.72
2022-08-05T11:16:00.045Z,100445.56
2022-08-05T11:18:34.061Z,100442.25
2022-08-05T11:21:06.338Z,100446.72
2022-08-05T11:24:04.503Z,100443.25
2022-08-05T11:26:40.433Z,100436.75
2022-08-05T11:29:36.087Z,100428.81
2022-08-05T11:32:24.469Z,100434.63
2022-08-05T11:34:54.192Z,100437.13
2022-08-05T11:38:36.741Z,100443.88
2022-08-05T11:41:36.857Z,100436.56
2022-08-05T11:44:06.777Z,100441.91
2022-08-05T11:46:35.192Z,100437.06
2022-08-05T11:49:03.840Z,100440.03
2022-08-05T11:51:44.794Z,100435.91
2022-08-05T11:54:33.341Z,100435.91
2022-08-05T11:57:07.893Z,100437.22
2022-08-05T11:59:50.798Z,100428.28
2022-08-05T12:02:29.686Z,100440.22
2022-08-05T12:05:07.558Z,100424.31
2022-08-05T12:08:09.591Z,100428.09
2022-08-05T12:10:38.638Z,100427.28
2022-08-05T12:13:16.702Z,100427.63
2022-08-05T12:15:50.284Z,100429.31
2022-08-05T12:18:19.071Z,100420.09
2022-08-05T12:20:48.015Z,100421.47
2022-08-05T12:23:16.289Z,100423.44
2022-08-05T12:25:53.845Z,100418.63
2022-08-05T12:28:34.581Z,100412.47
2022-08-05T12:31:04.690Z,100415.63
2022-08-05T12:33:37.065Z,100419.22
2022-08-05T12:36:08.799Z,100408.97
2022-08-05T12:38:39.638Z,100420.28
2022-08-05T12:41:12.859Z,100407.50
2022-08-05T12:43:52.976Z,100409.84
2022-08-05T12:46:31.376Z,100401.97
2022-08-05T12:49:13.045Z,100410.19
2022-08-05T12:52:14.065Z,100404.78
2022-08-05T12:54:40.979Z,100406.47
2022-08-05T12:57:13.277Z,100400.31
2022-08-05T13:01:56.832Z,100406.53
2022-08-05T13:02:37.184Z,100402.91
2022-08-05T13:05:07.803Z,100400.91
2022-08-05T13:07:59.516Z,100402.47
2022-08-05T13:10:24.105Z,100399.34
2022-08-05T13:12:58.089Z,100395.50
2022-08-05T13:15:41.401Z,100392.69
2022-08-05T13:18:19.756Z,100390.38
2022-08-05T13:20:49.783Z,100399.34
2022-08-05T13:23:22.816Z,100392.03
2022-08-05T13:25:59.394Z,100391.84
2022-08-05T13:28:29.165Z,100386.09
2022-08-05T13:30:59.999Z,100384.13
2022-08-05T13:34:22.810Z,100384.22
2022-08-05T13:36:25.080Z,100366.13
2022-08-05T13:38:52.145Z,100372.28
2022-08-05T13:41:19.220Z,100366.13
2022-08-05T13:43:54.482Z,100370.56
2022-08-05T13:46:44.275Z,100369.09
2022-08-05T13:49:12.959Z,100356.13
2022-08-05T13:51:46.198Z,100360.06
2022-08-05T13:54:16.994Z,100359.59
2022-08-05T13:56:51.689Z,100353.88
2022-08-05T13:59:24.392Z,100356.34
2022-08-05T14:01:58.090Z,100362.47
2022-08-05T14:04:51.892Z,100352.28
2022-08-05T14:07:56.996Z,100352.66
2022-08-05T14:10:18.929Z,100353.03
2022-08-05T14:12:55.626Z,100354.28
2022-08-05T14:16:05.437Z,100340.75
2022-08-05T14:18:14.674Z,100339.16
2022-08-05T14:20:48.576Z,100348.97
2022-08-05T14:23:25.169Z,100342.34
2022-08-05T14:25:57.796Z,100336.03
2022-08-05T14:28:30.164Z,100337.34
2022-08-05T14:31:00.772Z,100333.66
2022-08-05T14:33:56.416Z,100342.53
2022-08-05T14:36:21.456Z,100329.38
2022-08-05T14:38:50.134Z,100326.84
2022-08-05T14:41:18.581Z,100339.88
2022-08-05T14:43:57.620Z,100333.47
2022-08-05T14:46:30.837Z,100343.25
2022-08-05T14:49:06.400Z,100330.66
2022-08-05T14:51:37.626Z,100326.19
2022-08-05T14:54:26.844Z,100333.88
2022-08-05T14:56:56.371Z,100337.97
2022-08-05T14:59:23.748Z,100323.34
2022-08-05T15:01:51.000Z,100319.03
2022-08-05T15:04:20.446Z,100319.34
2022-08-05T15:06:51.087Z,100316.31
2022-08-05T15:09:52.045Z,100314.69
2022-08-05T15:12:09.457Z,100322.44
2022-08-05T15:14:42.242Z,100310.19
2022-08-05T15:17:46.954Z,100315.53
2022-08-05T15:20:05.020Z,100309.69
2022-08-05T15:22:32.184Z,100309.97
2022-08-05T15:24:59.338Z,100307.81
2022-08-05T15:27:26.708Z,100310.50
2022-08-05T15:30:04.669Z,100302.25
2022-08-05T15:32:33.118Z,100312.06
2022-08-05T15:35:00.048Z,100313.44
2022-08-05T15:38:34.763Z,100301.47
2022-08-05T15:40:58.831Z,100308.06
2022-08-05T15:43:20.604Z,100301.22
2022-08-05T15:46:00.179Z,100309.00
2022-08-05T15:48:28.761Z,100309.13
2022-08-05T15:50:56.682Z,100295.50
2022-08-05T15:53:26.325Z,100309.44
2022-08-05T15:56:02.857Z,100301.59
2022-08-05T15:58:35.716Z,100309.34
2022-08-05T16:01:16.640Z,100317.56
2022-08-05T16:03:50.300Z,100314.16
2022-08-05T16:06:19.589Z,100319.78
2022-08-05T16:08:51.142Z,100355.41
2022-08-05T16:11:39.931Z,100346.56
2022-08-05T16:14:09.093Z,100348.88
2022-08-05T16:16:37.123Z,100360.00
2022-08-05T16:19:05.044Z,100369.06
2022-08-05T16:22:00.799Z,100368.66
2022-08-05T16:24:39.827Z,100368.44
2022-08-05T16:27:07.642Z,100362.31
2022-08-05T16:29:37.498Z,100374.06
2022-08-05T16:32:09.997Z,100373.75
2022-08-05T16:34:39.421Z,100382.25
2022-08-05T16:38:01.942Z,100376.13
2022-08-05T16:40:04.944Z,100379.44
2022-08-05T16:42:35.311Z,100400.69
2022-08-05T16:46:02.906Z,100426.88
2022-08-05T16:47:55.452Z,100431.28
2022-08-05T16:50:25.626Z,100434.94
2022-08-05T16:52:52.650Z,100437.97
2022-08-05T16:55:20.336Z,100443.44
2022-08-05T16:58:00.252Z,100458.28
2022-08-05T17:00:34.955Z,100464.81
2022-08-05T17:03:15.128Z,100473.75
2022-08-05T17:05:51.501Z,100467.09
2022-08-05T17:08:36.503Z,100484.47
2022-08-05T17:11:12.595Z,100499.66
2022-08-05T17:13:45.209Z,100502.28
2022-08-05T17:16:32.673Z,100507.56
2022-08-05T17:19:00.684Z,100513.81
2022-08-05T17:21:36.327Z,100505.78
2022-08-05T17:24:19.348Z,100498.28
2022-08-05T17:26:53.747Z,100498.59
2022-08-05T17:29:33.868Z,100488.81
2022-08-05T17:32:16.821Z,100497.81
2022-08-05T17:34:48.531Z,100510.13
2022-08-05T17:37:39.867Z,100513.72
2022-08-05T17:40:10.289Z,100516.22
2022-08-05T17:42:41.598Z,100511.47
2022-08-05T17:45:20.129Z,100516.81
2022-08-05T17:47:53.522Z,100517.34
2022-08-05T17:50:28.435Z,100524.59
2022-08-05T17:52:58.975Z,100522.03
2022-08-05T17:55:38.331Z,100539.31
2022-08-05T17:58:10.897Z,100540.72
2022-08-05T18:00:45.456Z,100559.75
2022-08-05T18:03:56.575Z,100558.81
2022-08-05T18:06:11.331Z,100574.41
2022-08-05T18:08:44.836Z,100579.72
2022-08-05T18:11:23.975Z,100571.94
2022-08-05T18:13:53.712Z,100574.72
2022-08-05T18:16:21.135Z,100574.72
2022-08-05T18:18:49.916Z,100566.69
2022-08-05T18:21:21.172Z,100576.38
2022-08-05T18:23:53.462Z,100576.38
2022-08-05T18:26:27.506Z,100580.03
2022-08-05T18:28:58.289Z,100584.13
2022-08-05T18:31:26.078Z,100595.28
2022-08-05T18:34:01.937Z,100593.59
2022-08-05T18:36:29.509Z,100595.34
2022-08-05T18:38:56.656Z,100601.38
2022-08-05T18:41:58.336Z,100598.28
2022-08-05T18:44:12.864Z,100597.41
2022-08-05T18:46:41.267Z,100600.81
2022-08-05T18:49:30.491Z,100613.25
2022-08-05T18:52:16.659Z,100607.94
2022-08-05T18:54:45.908Z,100607.41
2022-08-05T18:57:15.414Z,100613.13
2022-08-05T19:00:02.534Z,100618.69
2022-08-05T19:02:30.389Z,100616.47
2022-08-05T19:05:02.900Z,100617.88
2022-08-05T19:07:49.726Z,100615.09
2022-08-05T19:10:28.046Z,100625.97
2022-08-05T19:12:57.335Z,100627.66
2022-08-05T19:15:56.588Z,100633.47
2022-08-05T19:18:21.900Z,100625.38
2022-08-05T19:20:52.356Z,100630.88
2022-08-05T19:24:04.095Z,100630.03
2022-08-05T19:26:08.471Z,100645.31
2022-08-05T19:28:42.274Z,100650.63
2022-08-05T19:31:13.001Z,100639.13
2022-08-05T19:33:48.632Z,100646.09
2022-08-05T19:36:25.885Z,100655.50
2022-08-05T19:38:55.098Z,100653.84
2022-08-05T19:42:05.661Z,100668.16
2022-08-05T19:44:17.405Z,100668.00
2022-08-05T19:46:45.809Z,100668.84
2022-08-05T19:49:16.858Z,100670.50
2022-08-05T19:52:04.246Z,100669.31
2022-08-05T19:54:35.291Z,100676.84
2022-08-05T19:57:06.732Z,100680.47
2022-08-05T19:59:54.728Z,100671.25
2022-08-05T20:02:30.443Z,100674.28
2022-08-05T20:04:59.716Z,100667.03
2022-08-05T20:07:46.618Z,100673.75
2022-08-05T20:10:16.710Z,100679.00
2022-08-05T20:12:47.709Z,100668.88
2022-08-05T20:15:48.987Z,100672.94
2022-08-05T20:18:09.824Z,100671.38
2022-08-05T20:20:49.599Z,100678.44
2022-08-05T20:23:16.628Z,100679.66
2022-08-05T20:25:47.489Z,100684.13
2022-08-05T20:28:16.417Z,100686.56
2022-08-05T20:30:43.508Z,100704.59
2022-08-05T20:33:10.505Z,100694.00
2022-08-05T20:35:40.510Z,100700.59
2022-08-05T20:38:20.158Z,100705.06
2022-08-05T20:40:55.398Z,100699.19
2022-08-05T20:43:57.376Z,100700.03
2022-08-05T20:46:18.507Z,100706.09
2022-08-05T20:48:52.159Z,100706.44
2022-08-05T20:51:19.380Z,100724.50
2022-08-05T20:53:56.262Z,100711.00
2022-08-05T20:56:31.828Z,100723.19
2022-08-05T20:59:14.356Z,100728.16
2022-08-05T21:01:51.777Z,100730.09
2022-08-05T21:04:19.425Z,100735.13
2022-08-05T21:06:46.818Z,100738.59
2022-08-05T21:09:15.099Z,100734.63
2022-08-05T21:12:10.519Z,100739.50
2022-08-05T21:14:34.587Z,100753.06
2022-08-05T21:17:06.076Z,100748.59
2022-08-05T21:19:46.742Z,100753.16
2022-08-05T21:22:18.504Z,100758.19
2022-08-05T21:24:51.657Z,100763.69
2022-08-05T21:27:25.347Z,100768.38
2022-08-05T21:29:56.108Z,100773.59
2022-08-05T21:32:30.942Z,100771.53
2022-08-05T21:35:16.968Z,100780.94
2022-08-05T21:37:52.957Z,100788.66
2022-08-05T21:40:23.131Z,100795.69
2022-08-05T21:42:52.674Z,100807.47
2022-08-05T21:45:25.057Z,100812.78
2022-08-05T21:48:09.777Z,100807.97
2022-08-05T21:50:37.506Z,100812.44
2022-08-05T21:53:17.591Z,100810.25
2022-08-05T21:56:05.441Z,100816.78
2022-08-05T21:58:32.531Z,100821.72
2022-08-05T22:01:04.423Z,100828.81
2022-08-05T22:03:48.552Z,100836.91
2022-08-05T22:06:22.611Z,100837.13
2022-08-05T22:08:52.160Z,100835.22
2022-08-05T22:11:35.036Z,100837.63
2022-08-05T22:14:20.001Z,100848.22
2022-08-05T22:16:53.171Z,100845.81
2022-08-05T22:20:01.194Z,100836.53
2022-08-05T22:22:12.272Z,100844.84
2022-08-05T22:25:00.619Z,100844.72
2022-08-05T22:28:08.610Z,100836.28
2022-08-05T22:30:34.972Z,100849.19
2022-08-05T22:33:02.978Z,100852.06
2022-08-05T22:35:35.664Z,100852.31
2022-08-05T22:38:15.631Z,100856.88
2022-08-05T22:40:49.970Z,100851.81
2022-08-05T22:43:37.373Z,100853.03
2022-08-05T22:46:13.140Z,100860.75
2022-08-05T22:48:50.967Z,100855.69
2022-08-05T22:51:23.208Z,100857.88
2022-08-05T22:54:05.968Z,100873.41
2022-08-05T22:56:32.893Z,100879.31
2022-08-05T22:59:03.944Z,100891.59
2022-08-05T23:02:04.930Z,100884.50
2022-08-05T23:04:33.401Z,100876.78
2022-08-05T23:07:00.611Z,100884.72
2022-08-05T23:09:57.437Z,100883.78
2022-08-05T23:12:17.820Z,100884.97
2022-08-05T23:14:45.060Z,100887.38
2022-08-05T23:17:34.917Z,100893.53
2022-08-05T23:20:16.326Z,100896.06
2022-08-05T23:22:47.681Z,100893.78
2022-08-05T23:25:50.923Z,100896.53
2022-08-05T23:28:07.231Z,100898.84
2022-08-05T23:30:40.072Z,100910.28
2022-08-05T23:33:16.001Z,100908.47
2022-08-05T23:35:51.069Z,100911.81
2022-08-05T23:38:18.348Z,100917.72
2022-08-05T23:40:50.147Z,100909.13
2022-08-05T23:43:25.764Z,100914.69
2022-08-05T23:46:20.262Z,100919.25
2022-08-05T23:49:00.699Z,100927.47
2022-08-05T23:51:53.775Z,100920.13
2022-08-05T23:54:29.918Z,100922.06
2022-08-05T23:57:03.466Z,100933.50
